Terminal Aerodrome Forecast
Issued by NWS Buffalo, NY

Home | Current Version | Previous Version | Text Only | Print | Product List | Glossary On
Versions: 1 2 3 4 5 6 7 8 9 10 11 12 13 14 15 16 17 18 19 20 21 22 23 24 25 26 27
000
FTUS41 KBUF 291524 AAA
TAFBUF
TAF AMD
KBUF 291524Z 2915/3012 04008KT P6SM BKN070
     FM291700 05010KT P6SM BKN035 OVC070
     FM291800 05011KT P6SM VCSH BKN030 OVC070
     FM292300 VRB03KT P6SM BKN060 BKN070
     FM300500 00000KT P6SM BKN040 BKN130
     FM300800 VRB03KT P6SM FEW035 SCT250=

USA.gov is the U.S. government's official web portal to all federal, state and local government web resources and services.